Time;durP1;ratioP1;P1;durP2;ratioP2;P2;SDS_P1;SDS_P2;PMS_P1;PMS_P2;Temp;Humidity;BMP_temperature;BMP_pressure;BME280_temperature;BME280_humidity;BME280_pressure;Samples;Min_cycle;Max_cycle;Signal;HPM_P1;HPM_P2
2021/01/03 00:11:36;;;;;;;54.70;38.20;;;4.70;99.90;;;;;;5846294;24;20482;-87
2021/01/03 00:14:03;;;;;;;54.83;39.00;;;4.70;99.90;;;;;;5946522;23;20271;-87
2021/01/03 00:16:31;;;;;;;62.00;47.50;;;4.70;99.90;;;;;;5994646;23;20459;-87
2021/01/03 00:19:00;;;;;;;60.63;45.80;;;4.70;99.90;;;;;;5994104;23;20468;-87
2021/01/03 00:21:28;;;;;;;59.20;43.73;;;4.70;99.90;;;;;;5994861;23;20852;-87
2021/01/03 00:34:51;;;;;;;57.23;40.10;;;4.60;99.90;;;;;;5869179;24;20960;-87
2021/01/03 00:37:25;;;;;;;61.13;41.27;;;4.60;99.90;;;;;;5966261;24;20425;-87
2021/01/03 01:04:47;;;;;;;57.57;39.80;;;4.60;99.90;;;;;;5145943;27;20591;-87
2021/01/03 06:35:22;;;;;;;52.80;36.60;;;3.80;99.90;;;;;;4882397;28;20433;-87
2021/01/03 06:38:12;;;;;;;52.67;34.33;;;3.80;99.90;;;;;;4983227;28;20470;-87
2021/01/03 06:58:08;;;;;;;50.80;31.27;;;3.80;99.90;;;;;;4946813;28;20465;-89
2021/01/03 07:00:42;;;;;;;49.10;31.80;;;3.70;99.90;;;;;;4982124;28;20468;-89
2021/01/03 08:38:27;;;;;;;43.40;30.77;;;3.50;99.90;;;;;;4851558;29;20465;-89
2021/01/03 08:41:02;;;;;;;38.57;29.10;;;3.50;99.90;;;;;;4909281;29;20219;-89
2021/01/03 08:43:30;;;;;;;44.00;28.67;;;3.50;99.90;;;;;;4910403;29;20531;-88
2021/01/03 08:46:02;;;;;;;42.30;28.67;;;3.50;99.90;;;;;;4997273;28;20965;-89
2021/01/03 08:48:30;;;;;;;40.57;28.00;;;3.50;99.90;;;;;;5018268;28;20547;-89
2021/01/03 08:51:06;;;;;;;41.20;29.33;;;3.50;99.90;;;;;;4985584;28;20457;-89
2021/01/03 08:53:35;;;;;;;38.10;28.20;;;3.60;99.90;;;;;;5018348;28;20448;-88
2021/01/03 08:56:07;;;;;;;35.70;25.60;;;3.60;99.90;;;;;;5018247;28;20985;-88
2021/01/03 08:58:36;;;;;;;42.00;28.80;;;3.60;99.90;;;;;;5002005;28;20917;-88
2021/01/03 09:01:05;;;;;;;38.30;26.10;;;3.60;99.90;;;;;;5022611;28;20524;-89
2021/01/03 09:03:34;;;;;;;42.20;27.37;;;3.60;99.90;;;;;;5041634;28;20466;-89
2021/01/03 09:06:03;;;;;;;38.90;25.50;;;3.60;99.90;;;;;;5042277;28;20439;-89
2021/01/03 09:08:32;;;;;;;34.50;24.97;;;3.60;99.90;;;;;;5042317;28;20539;-88
2021/01/03 09:11:12;;;;;;;38.70;26.70;;;3.60;99.90;;;;;;5041384;28;20871;-89
2021/01/03 09:13:46;;;;;;;35.37;25.50;;;3.60;99.90;;;;;;5042173;28;20443;-89
2021/01/03 09:16:31;;;;;;;35.30;25.43;;;3.70;99.90;;;;;;5040658;28;20469;-88
2021/01/03 09:19:06;;;;;;;37.37;24.83;;;3.70;99.90;;;;;;5042533;28;20504;-89
2021/01/03 09:21:33;;;;;;;34.93;24.17;;;3.70;99.90;;;;;;5041751;28;20464;-89
2021/01/03 09:24:04;;;;;;;35.90;23.90;;;3.70;99.90;;;;;;5041376;28;20468;-89
2021/01/03 09:26:41;;;;;;;32.40;24.23;;;3.70;99.90;;;;;;5034305;28;20509;-89
2021/01/03 09:29:12;;;;;;;30.93;23.50;;;3.70;99.90;;;;;;5035360;28;20482;-88
2021/01/03 09:31:57;;;;;;;32.73;24.73;;;3.60;99.90;;;;;;5041345;28;20522;-89
2021/01/03 09:34:45;;;;;;;31.50;24.60;;;3.70;99.90;;;;;;5040548;28;20504;-89
2021/01/03 09:37:24;;;;;;;34.10;24.40;;;3.70;99.90;;;;;;5040972;28;20443;-87
2021/01/03 09:40:17;;;;;;;26.73;21.33;;;3.70;99.90;;;;;;5038839;28;20502;-88
2021/01/03 09:42:59;;;;;;;27.77;20.25;;;3.80;99.90;;;;;;5038408;28;20453;-87
2021/01/03 09:45:40;;;;;;;28.30;21.40;;;3.90;99.90;;;;;;5039291;28;20196;-88
2021/01/03 09:48:08;;;;;;;28.70;20.43;;;3.90;99.90;;;;;;5021881;28;20814;-88
2021/01/03 09:50:46;;;;;;;26.30;17.77;;;3.90;99.90;;;;;;5033356;28;20525;-87
2021/01/03 09:53:27;;;;;;;24.23;17.33;;;3.90;99.90;;;;;;5018382;28;20491;-87
2021/01/03 09:55:58;;;;;;;24.33;18.50;;;3.90;99.90;;;;;;5025221;28;20443;-88
2021/01/03 09:58:36;;;;;;;22.60;17.00;;;3.90;99.90;;;;;;5040394;28;20504;-87
2021/01/03 10:01:05;;;;;;;24.30;16.63;;;3.90;99.90;;;;;;5023551;28;20486;-87
2021/01/03 10:03:39;;;;;;;18.00;14.50;;;3.90;99.90;;;;;;5019549;28;20655;-87
2021/01/03 10:06:19;;;;;;;17.87;14.30;;;4.00;99.90;;;;;;5018648;28;20447;-87
2021/01/03 10:08:47;;;;;;;19.10;15.57;;;3.90;99.90;;;;;;5018470;28;20524;-87
2021/01/03 10:11:30;;;;;;;16.37;13.53;;;3.90;99.90;;;;;;5052191;28;20447;-87
2021/01/03 10:13:59;;;;;;;17.03;13.77;;;3.90;99.90;;;;;;5020674;28;20443;-88
2021/01/03 10:16:29;;;;;;;15.93;13.30;;;4.00;99.90;;;;;;5019306;28;20459;-87
2021/01/03 10:18:57;;;;;;;12.40;11.07;;;4.00;99.90;;;;;;5018064;28;20515;-87
2021/01/03 10:21:35;;;;;;;10.77;9.17;;;4.00;99.90;;;;;;5035093;28;20505;-88
2021/01/03 10:24:11;;;;;;;11.87;10.13;;;4.10;99.90;;;;;;5052401;28;20481;-87
2021/01/03 10:26:38;;;;;;;14.40;10.33;;;4.10;99.90;;;;;;5018797;28;20457;-87
2021/01/03 10:29:07;;;;;;;9.97;8.97;;;4.10;99.90;;;;;;5018128;28;20476;-88
2021/01/03 10:31:40;;;;;;;10.00;9.00;;;4.10;99.90;;;;;;5051529;28;20479;-87
2021/01/03 10:34:08;;;;;;;11.10;9.40;;;4.10;99.90;;;;;;5018196;28;20444;-88
2021/01/03 10:36:36;;;;;;;11.60;9.80;;;4.10;99.90;;;;;;5023350;28;20490;-87
2021/01/03 10:39:07;;;;;;;10.27;9.17;;;4.10;99.90;;;;;;5020116;28;20462;-87
2021/01/03 10:41:36;;;;;;;12.63;9.80;;;4.20;99.90;;;;;;5020171;28;20466;-87
2021/01/03 10:44:08;;;;;;;11.70;9.70;;;4.20;99.90;;;;;;5018569;28;20968;-87
2021/01/03 10:46:35;;;;;;;12.07;10.87;;;4.20;99.90;;;;;;5068262;28;20487;-87
2021/01/03 10:49:03;;;;;;;11.97;10.67;;;4.20;99.90;;;;;;5021514;28;20526;-87
2021/01/03 10:51:33;;;;;;;12.77;11.23;;;4.20;99.90;;;;;;5016618;28;20495;-87
2021/01/03 10:54:01;;;;;;;11.27;10.00;;;4.20;99.90;;;;;;5017610;28;21004;-87
2021/01/03 10:56:28;;;;;;;15.50;10.90;;;4.20;99.90;;;;;;5019321;28;20448;-87
2021/01/03 10:58:56;;;;;;;13.63;12.20;;;4.20;99.90;;;;;;5018785;28;20479;-87
2021/01/03 11:01:24;;;;;;;13.57;11.70;;;4.30;99.90;;;;;;5018917;28;20452;-87
2021/01/03 11:03:52;;;;;;;13.73;12.13;;;4.20;99.90;;;;;;5032793;28;20518;-88
2021/01/03 11:06:38;;;;;;;14.07;12.00;;;4.20;99.90;;;;;;5038733;28;20516;-87
2021/01/03 11:09:08;;;;;;;13.50;11.37;;;4.30;99.90;;;;;;5038880;28;20482;-88
2021/01/03 11:11:35;;;;;;;15.83;13.10;;;4.30;99.90;;;;;;5024916;28;20460;-87
2021/01/03 11:14:03;;;;;;;14.50;13.00;;;4.30;99.90;;;;;;5050549;28;20460;-87
2021/01/03 11:16:36;;;;;;;14.60;12.00;;;4.30;99.90;;;;;;5050735;28;20448;-89
2021/01/03 11:19:06;;;;;;;13.80;12.47;;;4.30;99.90;;;;;;5034416;28;20471;-87
2021/01/03 11:21:34;;;;;;;14.67;13.13;;;4.30;99.90;;;;;;5020925;28;20538;-88
2021/01/03 11:24:02;;;;;;;14.93;13.40;;;4.40;99.90;;;;;;5022753;28;20459;-88
2021/01/03 11:26:32;;;;;;;17.47;15.27;;;4.40;99.90;;;;;;5018263;28;20459;-87
2021/01/03 11:29:00;;;;;;;18.23;16.43;;;4.40;99.90;;;;;;5018702;28;20534;-87
2021/01/03 11:31:33;;;;;;;19.70;16.77;;;4.40;99.90;;;;;;5037949;28;20515;-87
2021/01/03 11:34:00;;;;;;;22.20;18.50;;;4.40;99.90;;;;;;5038439;28;20453;-87
2021/01/03 11:36:28;;;;;;;21.97;19.67;;;4.50;99.90;;;;;;5038918;28;20653;-88
2021/01/03 11:38:55;;;;;;;22.07;18.93;;;4.50;99.90;;;;;;5034989;28;20479;-87
2021/01/03 11:41:23;;;;;;;19.00;16.85;;;4.50;99.90;;;;;;5022086;28;20961;-87
2021/01/03 11:43:50;;;;;;;18.33;16.30;;;4.50;99.90;;;;;;5028097;28;20196;-87
2021/01/03 11:46:19;;;;;;;17.97;16.07;;;4.50;99.90;;;;;;5041635;28;20447;-87
2021/01/03 11:48:47;;;;;;;19.10;15.80;;;4.50;99.90;;;;;;5041735;28;21040;-86
2021/01/03 11:51:15;;;;;;;18.60;16.60;;;4.50;99.90;;;;;;5041161;28;20463;-87
2021/01/03 11:53:42;;;;;;;18.43;16.47;;;4.50;99.90;;;;;;5042049;28;20469;-86
2021/01/03 11:56:10;;;;;;;19.33;15.97;;;4.50;99.90;;;;;;5033401;28;20481;-87
2021/01/03 11:58:37;;;;;;;18.07;14.90;;;4.50;99.90;;;;;;5046460;28;20462;-86
2021/01/03 12:01:05;;;;;;;14.87;12.23;;;4.50;99.90;;;;;;5041448;28;20466;-86
2021/01/03 12:03:32;;;;;;;12.90;11.53;;;4.40;99.90;;;;;;5041072;28;20447;-86
2021/01/03 12:06:00;;;;;;;15.90;14.23;;;4.40;99.90;;;;;;5041435;28;20451;-86
2021/01/03 12:08:28;;;;;;;12.83;11.43;;;4.40;99.90;;;;;;5041171;28;20470;-87
2021/01/03 12:10:55;;;;;;;13.90;12.43;;;4.40;99.90;;;;;;5041598;28;21049;-86
2021/01/03 12:13:22;;;;;;;11.90;10.50;;;4.40;99.90;;;;;;5041625;28;20495;-86
2021/01/03 12:15:50;;;;;;;12.80;11.50;;;4.30;99.90;;;;;;5040787;28;20447;-85
2021/01/03 12:18:18;;;;;;;11.57;9.83;;;4.30;99.90;;;;;;5040745;28;20511;-85
2021/01/03 12:20:45;;;;;;;12.43;11.13;;;4.30;99.90;;;;;;5039995;28;20451;-85
2021/01/03 12:23:13;;;;;;;12.87;10.70;;;4.30;99.90;;;;;;5028151;28;20460;-85
2021/01/03 12:25:40;;;;;;;12.83;11.53;;;4.30;99.90;;;;;;5040242;28;20522;-85
2021/01/03 12:28:07;;;;;;;11.30;10.20;;;4.30;99.90;;;;;;5040086;28;20467;-85
2021/01/03 12:30:35;;;;;;;11.27;10.07;;;4.30;99.90;;;;;;5040208;28;20478;-85
2021/01/03 12:33:02;;;;;;;12.93;11.73;;;4.30;99.90;;;;;;5027877;28;20464;-85
2021/01/03 12:35:30;;;;;;;11.73;10.53;;;4.20;99.90;;;;;;5021977;28;20424;-85
2021/01/03 12:37:57;;;;;;;12.03;10.93;;;4.20;99.90;;;;;;5020256;28;20471;-85
2021/01/03 12:40:25;;;;;;;10.90;9.80;;;4.20;99.90;;;;;;5038482;28;20500;-86
2021/01/03 12:42:52;;;;;;;11.57;10.37;;;4.20;99.90;;;;;;5028630;28;20855;-86
2021/01/03 12:45:20;;;;;;;10.07;8.67;;;4.20;99.90;;;;;;5027931;28;20454;-85
2021/01/03 12:47:47;;;;;;;10.60;9.50;;;4.20;99.90;;;;;;5041607;28;20845;-86
2021/01/03 12:50:14;;;;;;;9.63;8.63;;;4.20;99.90;;;;;;5074822;28;20952;-86
2021/01/03 12:52:47;;;;;;;11.23;10.03;;;4.20;99.90;;;;;;5041988;28;20532;-86
2021/01/03 12:55:15;;;;;;;11.33;10.17;;;4.20;99.90;;;;;;5025261;28;20546;-84
2021/01/03 12:57:43;;;;;;;10.17;9.07;;;4.20;99.90;;;;;;5020606;28;20427;-86
2021/01/03 13:00:15;;;;;;;11.00;9.10;;;4.20;99.90;;;;;;5020055;28;20451;-86
2021/01/03 13:02:42;;;;;;;10.00;8.90;;;4.20;99.90;;;;;;5028747;28;20516;-86
2021/01/03 13:05:11;;;;;;;9.53;8.67;;;4.20;99.90;;;;;;5022978;28;20455;-85
2021/01/03 13:07:38;;;;;;;10.03;9.03;;;4.20;99.90;;;;;;5023269;28;20462;-86
2021/01/03 13:10:07;;;;;;;10.20;9.20;;;4.20;99.90;;;;;;5039339;28;20866;-86
2021/01/03 13:12:38;;;;;;;9.83;8.50;;;4.20;99.90;;;;;;5038489;28;20470;-86
2021/01/03 13:15:09;;;;;;;10.20;9.20;;;4.20;99.90;;;;;;5038548;28;21002;-86
2021/01/03 13:17:36;;;;;;;10.80;9.77;;;4.20;99.90;;;;;;5040474;28;20423;-86
2021/01/03 13:20:06;;;;;;;8.87;8.03;;;4.20;99.90;;;;;;5038739;28;20447;-85
2021/01/03 13:22:33;;;;;;;11.03;9.93;;;4.20;99.90;;;;;;5040405;28;20447;-85
2021/01/03 13:25:01;;;;;;;9.50;8.60;;;4.20;99.90;;;;;;5028412;28;20481;-86
2021/01/03 13:27:29;;;;;;;9.33;8.20;;;4.20;99.90;;;;;;5019273;28;20448;-86
2021/01/03 13:29:56;;;;;;;10.97;9.10;;;4.20;99.90;;;;;;5023946;28;20493;-86
2021/01/03 13:32:27;;;;;;;9.50;8.60;;;4.20;99.90;;;;;;5031038;28;20507;-86
2021/01/03 13:34:56;;;;;;;9.87;8.87;;;4.30;99.90;;;;;;5019945;28;20444;-86
2021/01/03 13:37:23;;;;;;;9.43;8.53;;;4.30;99.90;;;;;;5019310;28;21007;-86
2021/01/03 13:39:51;;;;;;;9.90;9.00;;;4.30;99.90;;;;;;5018852;28;20460;-86
2021/01/03 13:42:18;;;;;;;8.60;7.77;;;4.30;99.90;;;;;;5019355;28;20971;-86
2021/01/03 13:44:45;;;;;;;9.53;8.73;;;4.20;99.90;;;;;;5019220;28;20484;-86
2021/01/03 13:47:12;;;;;;;10.80;8.47;;;4.30;99.90;;;;;;5019383;28;20822;-86
2021/01/03 13:49:41;;;;;;;10.23;8.20;;;4.30;99.90;;;;;;5019680;28;21060;-86
2021/01/03 13:52:08;;;;;;;9.70;8.80;;;4.30;99.90;;;;;;5019534;28;20475;-86
2021/01/03 13:54:35;;;;;;;12.17;8.70;;;4.30;99.90;;;;;;5019199;28;20448;-85
2021/01/03 13:57:03;;;;;;;12.43;9.73;;;4.30;99.90;;;;;;5019582;28;20470;-86
2021/01/03 13:59:31;;;;;;;13.80;10.40;;;4.40;99.90;;;;;;5018834;28;20508;-86
2021/01/03 14:01:58;;;;;;;14.17;12.67;;;4.40;99.90;;;;;;5051952;28;20462;-86
2021/01/03 14:04:25;;;;;;;13.40;11.73;;;4.40;99.90;;;;;;5020459;28;20498;-86
2021/01/03 14:06:56;;;;;;;15.10;13.50;;;4.40;99.90;;;;;;5032135;28;20450;-86
2021/01/03 14:09:23;;;;;;;19.10;15.40;;;4.40;99.90;;;;;;5040146;28;20455;-86
2021/01/03 14:11:50;;;;;;;22.20;18.07;;;4.40;99.90;;;;;;5039589;28;20455;-87
2021/01/03 14:14:18;;;;;;;18.13;15.97;;;4.40;99.90;;;;;;5038699;28;20497;-86
2021/01/03 14:16:54;;;;;;;15.60;13.33;;;4.40;99.90;;;;;;5039233;28;20474;-86
2021/01/03 14:19:21;;;;;;;14.80;11.75;;;4.40;99.90;;;;;;5038294;28;20454;-86
2021/01/03 14:21:48;;;;;;;14.20;11.60;;;4.40;99.90;;;;;;5040126;28;20192;-86
2021/01/03 14:24:17;;;;;;;14.33;12.83;;;4.50;99.90;;;;;;5035197;28;20483;-86
2021/01/03 14:26:46;;;;;;;13.30;11.90;;;4.50;99.90;;;;;;5038454;28;20454;-86
2021/01/03 14:29:16;;;;;;;12.32;10.85;;;4.50;99.90;;;;;;5038645;28;20515;-86
2021/01/03 14:31:44;;;;;;;10.20;9.20;;;4.50;99.90;;;;;;5038047;28;20191;-86
2021/01/03 14:34:21;;;;;;;11.20;10.03;;;4.60;99.90;;;;;;5039228;28;20474;-86
2021/01/03 14:36:51;;;;;;;9.47;8.50;;;4.60;99.90;;;;;;5035761;28;20477;-86
2021/01/03 14:39:23;;;;;;;8.80;7.90;;;4.50;99.90;;;;;;5038763;28;20475;-86
2021/01/03 14:41:54;;;;;;;8.50;7.70;;;4.50;99.90;;;;;;5038314;28;20446;-87
2021/01/03 14:44:24;;;;;;;12.10;8.80;;;4.50;99.90;;;;;;5034554;28;20448;-86
2021/01/03 14:46:57;;;;;;;10.30;9.20;;;4.50;99.90;;;;;;5018397;28;20448;-86
2021/01/03 14:49:41;;;;;;;12.20;10.90;;;4.50;99.90;;;;;;5020377;28;20490;-86
2021/01/03 14:52:26;;;;;;;11.05;7.85;;;4.50;99.90;;;;;;5029430;28;20455;-86
2021/01/03 14:55:15;;;;;;;7.70;6.30;;;4.40;99.90;;;;;;5018713;28;20513;-86
2021/01/03 14:57:45;;;;;;;7.13;6.43;;;4.40;99.90;;;;;;5024684;28;20961;-86
2021/01/03 15:00:16;;;;;;;9.80;8.43;;;4.40;99.90;;;;;;5039644;28;20451;-87
2021/01/03 15:03:01;;;;;;;14.40;11.70;;;4.40;99.90;;;;;;5037589;28;20542;-86
2021/01/03 15:05:32;;;;;;;17.90;13.07;;;4.40;99.90;;;;;;5037934;28;20497;-86
2021/01/03 15:08:04;;;;;;;19.40;16.50;;;4.40;99.90;;;;;;5018955;28;20817;-86
2021/01/03 15:10:33;;;;;;;16.60;13.33;;;4.40;99.90;;;;;;5018787;28;20582;-86
2021/01/03 15:13:01;;;;;;;11.07;9.37;;;4.40;99.90;;;;;;5019302;28;20884;-86
2021/01/03 15:15:44;;;;;;;10.63;9.53;;;4.40;99.90;;;;;;5022677;28;20458;-86
2021/01/03 15:18:19;;;;;;;7.93;7.00;;;4.40;99.90;;;;;;5022134;28;20474;-87
2021/01/03 15:20:46;;;;;;;8.30;7.20;;;4.40;99.90;;;;;;5022292;28;20497;-86
2021/01/03 15:23:19;;;;;;;9.07;8.17;;;4.40;99.90;;;;;;5031824;28;20458;-86
2021/01/03 15:25:52;;;;;;;9.70;7.40;;;4.40;99.90;;;;;;5040659;28;20489;-86
2021/01/03 15:28:24;;;;;;;7.83;7.03;;;4.40;99.90;;;;;;5023082;28;20467;-86
2021/01/03 15:30:54;;;;;;;6.60;6.00;;;4.40;99.90;;;;;;5021000;28;20786;-86
2021/01/03 15:33:25;;;;;;;5.87;5.33;;;4.40;99.90;;;;;;5021747;28;20980;-87
2021/01/03 15:35:56;;;;;;;6.00;5.00;;;4.40;99.90;;;;;;5025163;28;20876;-88
2021/01/03 15:38:25;;;;;;;5.17;4.67;;;4.40;99.90;;;;;;5074700;28;20505;-88
2021/01/03 15:40:59;;;;;;;5.40;4.90;;;4.40;99.90;;;;;;5041100;28;20447;-87
2021/01/03 15:43:49;;;;;;;5.60;4.30;;;4.30;99.90;;;;;;5041775;28;20950;-87
2021/01/03 15:46:23;;;;;;;4.50;4.10;;;4.30;99.90;;;;;;5043917;28;20439;-87
2021/01/03 15:48:54;;;;;;;10.70;5.70;;;4.30;99.90;;;;;;5042471;28;20475;-87
2021/01/03 15:51:23;;;;;;;5.90;5.00;;;4.30;99.90;;;;;;5078244;28;20490;-87
2021/01/03 15:54:01;;;;;;;5.60;4.90;;;4.30;99.90;;;;;;5042614;28;20459;-87
2021/01/03 15:56:34;;;;;;;5.97;5.27;;;4.30;99.90;;;;;;5035115;28;20444;-87
2021/01/03 15:59:02;;;;;;;6.43;5.83;;;4.30;99.90;;;;;;5028689;28;20510;-88
2021/01/03 16:01:31;;;;;;;6.33;5.20;;;4.30;99.90;;;;;;5044403;28;20474;-87
2021/01/03 16:03:59;;;;;;;5.10;4.60;;;4.30;99.90;;;;;;5051739;28;20473;-87
2021/01/03 16:06:29;;;;;;;6.53;5.33;;;4.30;99.90;;;;;;5045505;28;20442;-87
2021/01/03 16:09:01;;;;;;;7.80;5.90;;;4.30;99.90;;;;;;5041074;28;20477;-87
2021/01/03 16:11:28;;;;;;;6.10;5.50;;;4.30;99.90;;;;;;5041756;28;20447;-87
2021/01/03 16:13:57;;;;;;;7.37;6.63;;;4.30;99.90;;;;;;5043348;28;20458;-87
2021/01/03 16:16:32;;;;;;;7.50;5.70;;;4.20;99.90;;;;;;5041233;28;20443;-87
2021/01/03 16:19:02;;;;;;;8.33;6.50;;;4.20;99.90;;;;;;5054410;28;20940;-87
2021/01/03 16:21:49;;;;;;;7.50;5.90;;;4.30;99.90;;;;;;5031114;28;20454;-87
2021/01/03 16:24:23;;;;;;;8.33;6.57;;;4.30;99.90;;;;;;5042128;28;20420;-88
2021/01/03 16:26:52;;;;;;;8.50;6.90;;;4.30;99.90;;;;;;5042940;28;20449;-88
2021/01/03 16:30:04;;;;;;;8.27;7.37;;;4.40;99.90;;;;;;5045722;28;20251;-87
2021/01/03 16:32:49;;;;;;;8.53;7.40;;;4.30;99.90;;;;;;4986119;28;20465;-87
2021/01/03 16:35:48;;;;;;;7.27;6.20;;;4.30;99.90;;;;;;4967268;28;20529;-86
2021/01/03 16:38:41;;;;;;;8.23;7.43;;;4.20;99.90;;;;;;5037598;28;20494;-86
2021/01/03 16:41:19;;;;;;;8.97;7.10;;;4.20;99.90;;;;;;5044952;28;20446;-86
2021/01/03 16:44:01;;;;;;;7.93;7.13;;;4.20;99.90;;;;;;5033547;28;20466;-86
2021/01/03 16:46:50;;;;;;;6.70;6.00;;;4.10;99.90;;;;;;5020658;28;20448;-86
2021/01/03 16:49:23;;;;;;;7.80;7.10;;;4.10;99.90;;;;;;5020572;28;20492;-86
2021/01/03 16:51:56;;;;;;;10.40;8.20;;;4.10;99.90;;;;;;5020743;28;20452;-86
2021/01/03 16:54:49;;;;;;;9.03;8.13;;;4.10;99.90;;;;;;5021018;28;20463;-86
2021/01/03 16:57:37;;;;;;;8.20;7.40;;;4.10;99.90;;;;;;5032759;28;20506;-89
2021/01/03 17:00:46;;;;;;;8.93;8.03;;;4.00;99.90;;;;;;5038833;28;20450;-87
2021/01/03 17:03:28;;;;;;;10.40;8.00;;;4.00;99.90;;;;;;5011971;28;20455;-87
2021/01/03 17:05:57;;;;;;;9.90;7.87;;;4.00;99.90;;;;;;5022375;28;20450;-87
2021/01/03 17:08:38;;;;;;;10.03;8.87;;;4.00;99.90;;;;;;5065378;28;20680;-87
2021/01/03 17:11:11;;;;;;;9.40;8.43;;;4.00;99.90;;;;;;5031160;28;20489;-87
2021/01/03 17:14:07;;;;;;;10.03;8.07;;;4.00;99.90;;;;;;5055693;28;20470;-87
2021/01/03 17:16:49;;;;;;;10.10;8.93;;;3.90;99.90;;;;;;5018091;28;20515;-87
2021/01/03 17:19:51;;;;;;;11.20;7.70;;;3.90;99.90;;;;;;5019083;28;20483;-87
2021/01/03 17:22:27;;;;;;;10.90;9.30;;;3.90;99.90;;;;;;5016011;28;20448;-87
2021/01/03 17:25:08;;;;;;;12.80;10.90;;;3.90;99.90;;;;;;5027025;28;20455;-87
2021/01/03 17:28:13;;;;;;;11.87;10.20;;;3.90;99.90;;;;;;5035615;28;20553;-87
2021/01/03 17:30:59;;;;;;;12.30;10.80;;;3.90;99.90;;;;;;5015707;28;20469;-87
2021/01/03 17:33:49;;;;;;;12.67;11.43;;;3.80;99.90;;;;;;5022559;28;20526;-87
2021/01/03 17:36:29;;;;;;;13.40;11.67;;;3.80;99.90;;;;;;5034619;28;20466;-87
2021/01/03 17:38:59;;;;;;;13.27;11.57;;;3.80;99.90;;;;;;5038889;28;20475;-87
2021/01/03 17:41:33;;;;;;;14.93;12.33;;;3.80;99.90;;;;;;5034016;28;20533;-87
2021/01/03 17:44:15;;;;;;;13.20;11.10;;;3.80;99.90;;;;;;5029447;28;20898;-87
2021/01/03 17:46:48;;;;;;;15.33;12.83;;;3.80;99.90;;;;;;5038379;28;20797;-87
2021/01/03 17:49:22;;;;;;;13.97;12.43;;;3.80;99.90;;;;;;5038729;28;20457;-87
2021/01/03 17:51:51;;;;;;;18.10;12.50;;;3.80;99.90;;;;;;5037722;28;20547;-87
2021/01/03 17:54:20;;;;;;;13.17;11.50;;;3.80;99.90;;;;;;5038749;28;20521;-87
2021/01/03 17:56:57;;;;;;;14.03;11.90;;;3.80;99.90;;;;;;5038564;28;20776;-87
2021/01/03 17:59:25;;;;;;;14.80;12.40;;;3.80;99.90;;;;;;5037736;28;21010;-87
2021/01/03 18:01:53;;;;;;;17.57;13.63;;;3.80;99.90;;;;;;5029685;28;20448;-87
2021/01/03 18:04:20;;;;;;;15.60;12.87;;;3.80;99.90;;;;;;5018184;28;20493;-87
2021/01/03 18:06:52;;;;;;;15.43;13.30;;;3.70;99.90;;;;;;5018756;28;20448;-87
2021/01/03 18:09:20;;;;;;;17.40;13.07;;;3.80;99.90;;;;;;5018459;28;20501;-87
2021/01/03 18:11:48;;;;;;;16.43;13.20;;;3.70;99.90;;;;;;5018355;28;20485;-87
2021/01/03 18:14:16;;;;;;;15.37;12.93;;;3.70;99.90;;;;;;5018429;28;20475;-87
2021/01/03 18:16:43;;;;;;;15.30;13.67;;;3.70;99.90;;;;;;5019841;28;20860;-86
2021/01/03 18:19:11;;;;;;;18.43;14.80;;;3.70;99.90;;;;;;5020114;28;20506;-86
2021/01/03 18:21:39;;;;;;;18.40;13.43;;;3.70;99.90;;;;;;5020093;28;20522;-87
2021/01/03 18:24:10;;;;;;;19.53;15.47;;;3.70;99.90;;;;;;5022969;28;20467;-87
2021/01/03 18:26:41;;;;;;;15.57;13.00;;;3.70;99.90;;;;;;5029055;28;20448;-86
2021/01/03 18:29:11;;;;;;;16.60;14.17;;;3.70;99.90;;;;;;5018151;28;20483;-87
2021/01/03 18:31:39;;;;;;;17.67;12.57;;;3.70;99.90;;;;;;5019376;28;20440;-87
2021/01/03 18:34:07;;;;;;;17.03;14.93;;;3.70;99.90;;;;;;5018808;28;20475;-87
2021/01/03 18:36:35;;;;;;;18.63;14.63;;;3.70;99.90;;;;;;5021089;28;20446;-86
2021/01/03 18:39:04;;;;;;;16.20;13.80;;;3.70;99.90;;;;;;5019757;28;20735;-86
2021/01/03 18:41:33;;;;;;;19.27;14.90;;;3.70;99.90;;;;;;5026472;28;20503;-87
2021/01/03 18:44:00;;;;;;;18.47;14.07;;;3.70;99.90;;;;;;5037987;28;20442;-86
2021/01/03 18:46:28;;;;;;;17.53;13.30;;;3.70;99.90;;;;;;5024083;28;20482;-86
2021/01/03 18:48:55;;;;;;;18.10;14.63;;;3.70;99.90;;;;;;5056880;28;20478;-87
2021/01/03 18:51:22;;;;;;;19.53;15.93;;;3.70;99.90;;;;;;5019348;28;20527;-88
2021/01/03 18:53:50;;;;;;;19.77;13.53;;;3.70;99.90;;;;;;5056766;28;20994;-87
2021/01/03 18:56:25;;;;;;;18.67;14.60;;;3.80;99.90;;;;;;5039758;28;20447;-87
2021/01/03 18:58:53;;;;;;;19.53;13.60;;;3.70;99.90;;;;;;5041902;28;20479;-86
2021/01/03 19:01:27;;;;;;;16.07;13.47;;;3.70;99.90;;;;;;5028676;28;20531;-87
2021/01/03 19:03:55;;;;;;;18.10;14.70;;;3.80;99.90;;;;;;5039390;28;20453;-86
2021/01/03 19:06:31;;;;;;;18.90;13.73;;;3.70;99.90;;;;;;5039549;28;20816;-86
2021/01/03 19:08:58;;;;;;;15.30;13.27;;;3.80;99.90;;;;;;5035009;28;20845;-87
2021/01/03 19:11:28;;;;;;;17.13;12.33;;;3.80;99.90;;;;;;5019182;28;20898;-86
2021/01/03 19:13:58;;;;;;;15.23;13.63;;;3.80;99.90;;;;;;5052651;28;20497;-87
2021/01/03 19:16:27;;;;;;;16.30;11.63;;;3.80;99.90;;;;;;5054318;28;20474;-87
2021/01/03 19:18:56;;;;;;;18.40;13.23;;;3.90;99.90;;;;;;5042950;28;20478;-87
2021/01/03 19:21:25;;;;;;;16.63;14.17;;;3.80;99.90;;;;;;5042351;28;20450;-87
2021/01/03 19:23:53;;;;;;;16.98;13.32;;;3.80;99.90;;;;;;5074374;28;20441;-87
2021/01/03 19:26:21;;;;;;;16.83;12.47;;;3.90;99.90;;;;;;5029269;28;20255;-87
2021/01/03 19:28:50;;;;;;;14.20;12.43;;;3.90;99.90;;;;;;5036911;28;20551;-86
2021/01/03 19:31:20;;;;;;;17.20;12.20;;;3.90;99.90;;;;;;5021165;28;20451;-86
2021/01/03 19:33:55;;;;;;;16.57;12.87;;;3.90;99.90;;;;;;5020262;28;20443;-85
2021/01/03 19:36:29;;;;;;;17.90;12.93;;;4.00;99.90;;;;;;5023922;28;20453;-85
2021/01/03 19:38:57;;;;;;;14.77;13.27;;;4.00;99.90;;;;;;5017645;28;20475;-86
2021/01/03 19:41:27;;;;;;;15.50;12.20;;;3.90;99.90;;;;;;5018488;28;20450;-86
2021/01/03 19:43:55;;;;;;;13.37;10.73;;;3.90;99.90;;;;;;5021195;28;20448;-85
2021/01/03 20:01:29;;;;;;;12.80;11.37;;;3.90;99.90;;;;;;5035682;28;20460;-86
2021/01/03 20:03:56;;;;;;;14.17;11.23;;;3.90;99.90;;;;;;5024082;28;20885;-86
2021/01/03 20:06:25;;;;;;;13.53;10.80;;;3.90;99.90;;;;;;5021347;28;20492;-86
2021/01/03 20:11:53;;;;;;;14.27;11.87;;;3.90;99.90;;;;;;5021983;28;20567;-86
2021/01/03 20:14:41;;;;;;;13.60;11.03;;;3.90;99.90;;;;;;5004976;28;20461;-86
2021/01/03 20:20:09;;;;;;;12.90;10.00;;;3.90;99.90;;;;;;5018668;28;20461;-85
2021/01/03 20:22:51;;;;;;;17.80;12.03;;;3.90;99.90;;;;;;5016654;28;20457;-85
2021/01/03 20:25:31;;;;;;;16.50;10.83;;;3.90;99.90;;;;;;5008696;28;20460;-85
2021/01/03 20:28:13;;;;;;;15.60;11.20;;;3.90;99.90;;;;;;5023847;28;20470;-85
2021/01/03 20:31:06;;;;;;;14.57;9.63;;;3.90;99.90;;;;;;5022976;28;20498;-86
2021/01/03 20:33:52;;;;;;;12.57;9.33;;;3.90;99.90;;;;;;5024724;28;20487;-86
2021/01/03 20:36:41;;;;;;;11.20;10.00;;;3.90;99.90;;;;;;5024566;28;20444;-86
2021/01/03 20:39:18;;;;;;;12.03;9.77;;;3.90;99.90;;;;;;5053357;22;20510;-85
2021/01/03 20:42:11;;;;;;;11.80;9.67;;;3.90;99.90;;;;;;5055267;28;20463;-86
2021/01/03 20:44:58;;;;;;;13.07;10.17;;;3.90;99.90;;;;;;5036032;28;20452;-86
2021/01/03 20:47:43;;;;;;;11.67;9.17;;;3.90;99.90;;;;;;5061945;28;20530;-86
2021/01/03 20:50:28;;;;;;;12.70;10.97;;;3.90;99.90;;;;;;5021839;28;20452;-86
2021/01/03 20:53:06;;;;;;;12.07;9.57;;;3.90;99.90;;;;;;5022927;28;20470;-86
2021/01/03 20:55:51;;;;;;;14.73;10.53;;;3.90;99.90;;;;;;5039202;28;20451;-86
2021/01/03 21:01:24;;;;;;;11.00;9.30;;;4.00;99.90;;;;;;5040754;28;20446;-86
2021/01/03 21:04:04;;;;;;;12.60;9.37;;;4.00;99.90;;;;;;5041486;28;20465;-86
2021/01/03 21:06:57;;;;;;;13.23;9.80;;;4.00;99.90;;;;;;5022157;28;20963;-85
2021/01/03 21:12:12;;;;;;;10.60;8.37;;;4.00;99.90;;;;;;5017913;28;20561;-81
2021/01/03 21:14:40;;;;;;;11.13;8.60;;;4.00;99.90;;;;;;5020745;28;20593;-81
2021/01/03 21:20:55;;;;;;;11.60;10.03;;;4.00;99.90;;;;;;5001178;28;20520;-81
2021/01/03 21:23:27;;;;;;;11.87;10.27;;;4.00;99.90;;;;;;5015693;28;20452;-81
2021/01/03 21:26:23;;;;;;;11.57;9.30;;;4.00;99.90;;;;;;5014811;28;20545;-81
2021/01/03 21:28:54;;;;;;;10.87;9.07;;;4.00;99.90;;;;;;4979116;28;20888;-81
2021/01/03 21:31:34;;;;;;;9.50;7.13;;;4.00;99.90;;;;;;4996669;28;20942;-82
2021/01/03 21:34:11;;;;;;;11.83;8.70;;;4.00;99.90;;;;;;4979375;28;20469;-81
2021/01/03 21:36:46;;;;;;;10.23;7.70;;;4.00;99.90;;;;;;4995270;28;20441;-81
2021/01/03 21:39:27;;;;;;;11.17;8.63;;;4.00;99.90;;;;;;4978918;28;20921;-81
2021/01/03 21:42:02;;;;;;;10.33;8.83;;;4.00;99.90;;;;;;4980508;28;20433;-81
2021/01/03 21:45:06;;;;;;;11.23;8.80;;;4.00;99.90;;;;;;4981771;28;20531;-81
2021/01/03 21:47:54;;;;;;;9.27;7.50;;;4.00;99.90;;;;;;4979822;28;20456;-81
2021/01/03 21:50:37;;;;;;;9.50;7.83;;;4.00;99.90;;;;;;4991771;28;20856;-81